Stewartstown, New Hampshire
Current Conditions -  °F | °C
As of 9:52 PM on Sunday 23 Nov 2014 (Local Time) from KBML Reporting Station
Haze Haze  
Wind Chill: 31°   Ceiling: 4700
Heat Index: 31°   Visibility: 4mi
Dew Point: 29°   Wind: 0mph
Humidity: 92%   Direction: NA
Pressure: 30.07"   Gusts: NA
Location:  44.8906°N, 71.3771°W
Report Text: KBML 240252Z AUTO 00000KT 4SM BR SCT001 BKN047 M01/M02 A3007 RMK AO2 SLP195 T10061017 58005
Loading
Personal Weather Stations






























Interactive Weather Map New forecast layout! Learn more

10-Day Weather Forecast

Advertisements
Track Severe Weather on mobile